createdAt,value
2022-09-12T00:00:48.492Z,6.43
2022-09-12T00:03:16.234Z,6.05
2022-09-12T00:05:44.336Z,6.38
2022-09-12T00:08:12.945Z,8.10
2022-09-12T00:10:43.922Z,9.70
2022-09-12T00:13:12.328Z,7.18
2022-09-12T00:15:40.150Z,6.97
2022-09-12T00:18:09.318Z,5.90
2022-09-12T00:20:37.010Z,8.90
2022-09-12T00:23:04.611Z,6.75
2022-09-12T00:25:32.072Z,6.85
2022-09-12T00:28:00.897Z,7.00
2022-09-12T00:30:28.537Z,8.05
2022-09-12T00:32:56.043Z,6.57
2022-09-12T00:35:23.559Z,6.63
2022-09-12T00:37:51.028Z,6.45
2022-09-12T00:40:18.528Z,7.78
2022-09-12T00:42:46.019Z,7.13
2022-09-12T00:45:24.058Z,8.90
2022-09-12T00:47:51.654Z,7.40
2022-09-12T00:50:19.550Z,6.32
2022-09-12T00:52:51.787Z,6.80
2022-09-12T00:55:23.243Z,6.90
2022-09-12T00:57:54.951Z,5.75
2022-09-12T01:00:26.360Z,7.45
2022-09-12T01:02:58.112Z,8.13
2022-09-12T01:05:29.130Z,7.75
2022-09-12T01:07:57.946Z,7.85
2022-09-12T01:10:25.892Z,6.65
2022-09-12T01:12:53.581Z,7.82
2022-09-12T01:15:21.136Z,7.63
2022-09-12T01:18:03.079Z,7.75
2022-09-12T01:20:47.449Z,7.22
2022-09-12T01:23:44.707Z,7.03
2022-09-12T01:26:39.504Z,6.43
2022-09-12T01:29:26.325Z,7.85
2022-09-12T01:32:01.401Z,9.18
2022-09-12T01:34:40.081Z,7.13
2022-09-12T01:37:15.291Z,7.45
2022-09-12T01:39:53.381Z,8.82
2022-09-12T01:42:27.893Z,10.05
2022-09-12T01:45:03.151Z,8.02
2022-09-12T01:47:40.407Z,7.57
2022-09-12T01:50:11.681Z,7.95
2022-09-12T01:52:45.736Z,7.18
2022-09-12T01:55:19.652Z,7.47
2022-09-12T01:57:53.814Z,9.13
2022-09-12T02:00:21.593Z,9.95
2022-09-12T02:02:54.916Z,7.95
2022-09-12T02:05:29.414Z,8.52
2022-09-12T02:08:03.936Z,9.35
2022-09-12T02:10:34.437Z,7.93
2022-09-12T02:13:09.338Z,10.48
2022-09-12T02:15:40.959Z,8.15
2022-09-12T02:18:15.159Z,8.10
2022-09-12T02:20:48.397Z,8.68
2022-09-12T02:23:20.644Z,7.07
2022-09-12T02:25:52.053Z,9.77
2022-09-12T02:28:24.922Z,8.10
2022-09-12T02:31:00.525Z,7.93
2022-09-12T02:33:38.676Z,7.32
2022-09-12T02:36:14.370Z,9.43
2022-09-12T02:38:45.761Z,10.32
2022-09-12T02:41:16.808Z,6.30
2022-09-12T02:43:44.682Z,7.90
2022-09-12T02:46:17.891Z,8.02
2022-09-12T02:48:46.884Z,7.82
2022-09-12T02:51:14.800Z,7.10
2022-09-12T02:53:43.219Z,7.40
2022-09-12T02:56:18.281Z,6.68
2022-09-12T02:58:46.407Z,7.40
2022-09-12T03:01:28.903Z,7.45
2022-09-12T03:04:23.764Z,7.80
2022-09-12T03:07:02.731Z,8.50
2022-09-12T03:09:38.801Z,8.23
2022-09-12T03:12:17.147Z,7.53
2022-09-12T03:15:07.395Z,9.32
2022-09-12T03:17:48.426Z,7.55
2022-09-12T03:20:29.704Z,6.32
2022-09-12T03:23:01.948Z,8.65
2022-09-12T03:25:33.666Z,8.63
2022-09-12T03:28:07.557Z,10.37
2022-09-12T03:30:39.189Z,7.97
2022-09-12T03:33:07.019Z,9.18
2022-09-12T03:35:35.933Z,7.32
2022-09-12T03:38:03.468Z,8.20
2022-09-12T03:40:30.960Z,7.93
2022-09-12T03:42:58.468Z,8.82
2022-09-12T03:45:26.007Z,9.98
2022-09-12T03:47:53.579Z,7.60
2022-09-12T03:50:21.268Z,8.07
2022-09-12T03:52:50.137Z,7.55
2022-09-12T03:55:18.144Z,9.10
2022-09-12T03:57:45.814Z,7.07
2022-09-12T04:00:19.049Z,7.15
2022-09-12T04:02:47.371Z,10.07
2022-09-12T04:05:14.955Z,7.60
2022-09-12T04:07:42.445Z,8.35
2022-09-12T04:10:11.509Z,8.57
2022-09-12T04:12:39.523Z,8.48
2022-09-12T04:15:08.328Z,8.75
2022-09-12T04:17:36.153Z,8.70
2022-09-12T04:20:03.948Z,7.47
2022-09-12T04:22:32.554Z,7.18
2022-09-12T04:25:00.188Z,8.32
2022-09-12T04:27:29.316Z,7.90
2022-09-12T04:29:57.392Z,8.27
2022-09-12T04:32:24.922Z,9.32
2022-09-12T04:34:53.388Z,9.88
2022-09-12T04:37:21.214Z,9.50
2022-09-12T04:39:49.708Z,8.68
2022-09-12T04:42:17.436Z,12.65
2022-09-12T04:44:46.306Z,9.02
2022-09-12T04:47:13.780Z,8.38
2022-09-12T04:49:41.269Z,8.25
2022-09-12T04:52:09.087Z,8.05
2022-09-12T04:54:36.583Z,8.57
2022-09-12T04:57:04.427Z,9.95
2022-09-12T04:59:31.917Z,10.25
2022-09-12T05:02:00.905Z,9.02
2022-09-12T05:04:28.474Z,7.53
2022-09-12T05:06:55.997Z,8.13
2022-09-12T05:09:23.544Z,8.65
2022-09-12T05:12:06.361Z,8.70
2022-09-12T05:14:34.466Z,8.40
2022-09-12T05:17:05.948Z,9.95
2022-09-12T05:19:33.877Z,10.57
2022-09-12T05:22:01.548Z,12.73
2022-09-12T05:24:29.041Z,12.02
2022-09-12T05:26:56.589Z,16.70
2022-09-12T05:29:25.140Z,14.50
2022-09-12T05:31:53.169Z,17.85
2022-09-12T05:34:22.223Z,19.40
2022-09-12T05:36:49.808Z,16.85
2022-09-12T05:39:18.546Z,16.15
2022-09-12T05:41:47.344Z,14.98
2022-09-12T05:44:15.770Z,14.07
2022-09-12T05:46:44.995Z,17.15
2022-09-12T05:49:14.511Z,14.73
2022-09-12T05:51:45.895Z,17.10
2022-09-12T05:54:15.177Z,15.85
2022-09-12T05:56:44.219Z,10.38
2022-09-12T05:59:14.188Z,11.65
2022-09-12T06:01:41.988Z,13.32
2022-09-12T06:04:10.593Z,10.48
2022-09-12T06:06:41.730Z,14.50
2022-09-12T06:09:10.977Z,13.43
2022-09-12T06:11:41.255Z,14.70
2022-09-12T06:14:10.792Z,16.80
2022-09-12T06:16:38.960Z,15.00
2022-09-12T06:19:08.447Z,14.98
2022-09-12T06:21:37.830Z,16.65
2022-09-12T06:24:05.603Z,13.40
2022-09-12T06:26:35.031Z,19.10
2022-09-12T06:29:03.214Z,16.70
2022-09-12T06:31:33.196Z,16.10
2022-09-12T06:34:02.516Z,15.88
2022-09-12T06:36:32.026Z,13.98
2022-09-12T06:39:03.180Z,19.42
2022-09-12T06:41:32.134Z,17.65
2022-09-12T06:44:01.951Z,17.65
2022-09-12T06:46:31.071Z,10.48
2022-09-12T06:49:00.605Z,11.75
2022-09-12T06:51:29.102Z,11.20
2022-09-12T06:53:57.636Z,11.02
2022-09-12T06:56:27.453Z,13.73
2022-09-12T06:58:57.332Z,10.68
2022-09-12T07:01:28.551Z,10.88
2022-09-12T07:03:57.697Z,9.10
2022-09-12T07:06:31.583Z,9.95
2022-09-12T07:08:59.751Z,8.68
2022-09-12T07:11:29.294Z,9.10
2022-09-12T07:13:57.527Z,9.35
2022-09-12T07:16:26.620Z,8.32
2022-09-12T07:18:55.637Z,14.55
2022-09-12T07:21:23.491Z,10.15
2022-09-12T07:23:52.052Z,11.45
2022-09-12T07:26:20.014Z,11.07
2022-09-12T07:28:52.022Z,11.77
2022-09-12T07:31:20.225Z,13.40
2022-09-12T07:33:54.444Z,14.20
2022-09-12T07:36:25.296Z,13.18
2022-09-12T07:38:57.602Z,13.07
2022-09-12T07:41:27.461Z,11.10
2022-09-12T07:43:56.152Z,9.10
2022-09-12T07:46:24.959Z,9.02
2022-09-12T07:48:55.376Z,10.15
2022-09-12T07:51:23.578Z,8.48
2022-09-12T07:53:51.797Z,8.48
2022-09-12T07:56:21.118Z,7.50
2022-09-12T07:58:49.222Z,6.93
2022-09-12T08:01:18.398Z,6.45
2022-09-12T08:03:47.621Z,6.18
2022-09-12T08:06:20.006Z,8.48
2022-09-12T08:08:48.766Z,5.53
2022-09-12T08:11:18.612Z,9.45
2022-09-12T08:13:49.643Z,2.08
2022-09-12T08:16:22.605Z,1.73
2022-09-12T08:18:51.129Z,1.60
2022-09-12T08:21:22.335Z,2.28
2022-09-12T08:23:54.057Z,1.60
2022-09-12T08:26:22.082Z,1.70
2022-09-12T08:28:50.062Z,1.90
2022-09-12T08:31:19.168Z,2.95
2022-09-12T08:33:46.865Z,1.83
2022-09-12T08:36:16.979Z,1.55
2022-09-12T08:38:47.479Z,1.50
2022-09-12T08:41:24.968Z,1.52
2022-09-12T08:44:13.602Z,2.03
2022-09-12T08:46:51.755Z,3.60
2022-09-12T08:49:26.302Z,1.23
2022-09-12T08:51:55.528Z,1.83
2022-09-12T08:54:28.200Z,3.30
2022-09-12T08:57:02.651Z,2.78
2022-09-12T08:59:36.665Z,3.40
2022-09-12T09:02:15.171Z,1.25
2022-09-12T09:04:51.782Z,2.03
2022-09-12T09:07:39.432Z,2.97
2022-09-12T09:10:23.545Z,2.67
2022-09-12T09:12:58.329Z,1.50
2022-09-12T09:15:45.483Z,1.55
2022-09-12T09:18:19.535Z,1.65
2022-09-12T09:20:52.997Z,1.13
2022-09-12T09:23:24.747Z,2.55
2022-09-12T09:28:29.894Z,3.10
2022-09-12T09:30:58.409Z,1.20
2022-09-12T09:33:29.048Z,1.30
2022-09-12T09:36:14.782Z,2.85
2022-09-12T09:38:49.967Z,2.72
2022-09-12T09:41:36.278Z,2.53
2022-09-12T09:44:04.423Z,1.23
2022-09-12T09:46:33.321Z,1.77
2022-09-12T09:49:03.195Z,2.67
2022-09-12T09:51:36.912Z,1.35
2022-09-12T09:54:12.200Z,3.90
2022-09-12T09:56:42.426Z,1.08
2022-09-12T09:59:12.697Z,1.15
2022-09-12T10:01:46.387Z,1.10
2022-09-12T10:04:21.755Z,1.65
2022-09-12T10:06:52.568Z,1.17
2022-09-12T10:09:25.788Z,0.82
2022-09-12T10:11:56.374Z,0.85
2022-09-12T10:14:38.456Z,1.67
2022-09-12T10:17:33.778Z,1.33
2022-09-12T10:20:21.617Z,2.53
2022-09-12T10:22:50.460Z,1.35
2022-09-12T10:25:20.236Z,2.97
2022-09-12T10:27:55.106Z,0.82
2022-09-12T10:30:24.996Z,1.25
2022-09-12T10:32:54.339Z,0.88
2022-09-12T10:35:23.913Z,0.85
2022-09-12T10:37:55.391Z,1.40
2022-09-12T10:40:26.022Z,2.50
2022-09-12T10:42:56.225Z,1.20
2022-09-12T10:45:27.224Z,1.10
2022-09-12T10:47:58.163Z,0.90
2022-09-12T10:50:29.749Z,0.93
2022-09-12T10:53:14.773Z,1.05
2022-09-12T10:55:48.461Z,1.10
2022-09-12T10:58:32.217Z,1.40
2022-09-12T11:01:10.058Z,2.40
2022-09-12T11:03:59.743Z,1.00
2022-09-12T11:06:36.294Z,2.42
2022-09-12T11:09:10.891Z,1.10
2022-09-12T11:11:54.091Z,1.33
2022-09-12T11:14:35.318Z,1.33
2022-09-12T11:19:50.938Z,1.73
2022-09-12T11:22:32.030Z,0.90
2022-09-12T11:27:50.679Z,1.48
2022-09-12T11:30:19.855Z,1.00
2022-09-12T11:33:00.044Z,1.08
2022-09-12T11:35:30.042Z,1.00
2022-09-12T11:38:21.091Z,0.98
2022-09-12T11:40:54.506Z,0.93
2022-09-12T11:43:30.867Z,0.75
2022-09-12T11:46:07.639Z,10.73
2022-09-12T11:48:44.823Z,0.68
2022-09-12T11:51:19.792Z,1.05
2022-09-12T11:53:59.418Z,3.38
2022-09-12T11:56:27.152Z,0.75
2022-09-12T11:59:02.011Z,0.70
2022-09-12T12:01:41.317Z,0.60
2022-09-12T12:04:13.813Z,0.70
2022-09-12T12:06:52.082Z,2.17
2022-09-12T12:09:19.865Z,2.38
2022-09-12T12:11:52.611Z,1.35
2022-09-12T12:14:24.010Z,1.42
2022-09-12T12:16:52.897Z,1.23
2022-09-12T12:19:33.878Z,1.25
2022-09-12T12:22:18.120Z,0.97
2022-09-12T12:25:05.679Z,0.80
2022-09-12T12:27:49.287Z,4.00
2022-09-12T12:31:00.411Z,1.02
2022-09-12T12:33:55.751Z,1.27
2022-09-12T12:36:40.293Z,1.05
2022-09-12T12:39:45.720Z,1.38
2022-09-12T12:43:04.494Z,0.85
2022-09-12T12:46:12.406Z,1.45
2022-09-12T12:48:52.849Z,1.80
2022-09-12T12:52:01.228Z,0.88
2022-09-12T12:54:35.601Z,0.88
2022-09-12T12:57:18.527Z,0.82
2022-09-12T12:59:50.082Z,0.80
2022-09-12T13:02:24.068Z,0.90
2022-09-12T13:04:52.519Z,0.95
2022-09-12T13:07:28.674Z,1.00
2022-09-12T13:09:57.756Z,0.90
2022-09-12T13:12:27.271Z,1.70
2022-09-12T13:14:58.409Z,0.75
2022-09-12T13:17:35.905Z,1.00
2022-09-12T13:20:27.821Z,2.10
2022-09-12T13:22:58.342Z,0.80
2022-09-12T13:25:30.114Z,0.93
2022-09-12T13:28:07.402Z,2.63
2022-09-12T13:30:37.409Z,1.10
2022-09-12T13:33:21.813Z,1.50
2022-09-12T13:36:08.609Z,1.70
2022-09-12T13:38:48.629Z,0.98
2022-09-12T13:41:37.375Z,1.02
2022-09-12T13:44:05.378Z,2.20
2022-09-12T13:46:35.251Z,1.08
2022-09-12T13:49:11.511Z,1.27
2022-09-12T13:51:39.232Z,0.63
2022-09-12T13:54:08.268Z,0.75
2022-09-12T13:56:48.385Z,0.70
2022-09-12T13:59:15.993Z,0.70
2022-09-12T14:01:45.067Z,1.02
2022-09-12T14:08:28.876Z,0.88
2022-09-12T15:37:44.226Z,0.82
2022-09-12T16:51:11.338Z,9.40
2022-09-12T16:53:40.340Z,14.82
2022-09-12T16:56:08.634Z,3.60
2022-09-12T16:58:41.817Z,2.22
2022-09-12T17:01:11.161Z,2.08
2022-09-12T17:03:39.220Z,2.85
2022-09-12T17:06:09.333Z,1.15
2022-09-12T17:08:40.319Z,5.55
2022-09-12T17:11:11.101Z,1.30
2022-09-12T17:14:03.239Z,1.42
2022-09-12T17:16:28.329Z,2.17
2022-09-12T17:18:56.279Z,1.75
2022-09-12T17:21:23.985Z,3.35
2022-09-12T17:23:52.971Z,3.13
2022-09-12T17:26:20.760Z,5.57
2022-09-12T17:28:48.825Z,2.97
2022-09-12T17:31:17.226Z,2.05
2022-09-12T17:33:45.373Z,1.70
2022-09-12T17:36:15.326Z,1.90
2022-09-12T17:38:44.321Z,3.05
2022-09-12T17:41:21.484Z,1.73
2022-09-12T17:43:51.019Z,4.25
2022-09-12T17:46:19.156Z,3.08
2022-09-12T17:48:46.813Z,3.72
2022-09-12T17:51:16.265Z,2.65
2022-09-12T17:53:44.429Z,1.95
2022-09-12T17:56:12.357Z,4.18
2022-09-12T17:58:41.384Z,4.82
2022-09-12T18:01:30.650Z,2.58
2022-09-12T18:04:00.565Z,1.83
2022-09-12T18:06:29.487Z,2.60
2022-09-12T18:08:59.983Z,3.28
2022-09-12T18:11:27.634Z,2.10
2022-09-12T18:13:56.842Z,2.20
2022-09-12T18:16:24.415Z,3.80
2022-09-12T18:18:52.063Z,15.45
2022-09-12T18:21:20.418Z,4.60
2022-09-12T18:23:48.412Z,3.58
2022-09-12T18:26:16.128Z,3.10
2022-09-12T18:28:45.279Z,2.83
2022-09-12T18:31:16.982Z,2.47
2022-09-12T18:33:45.214Z,5.03
2022-09-12T18:36:14.461Z,2.42
2022-09-12T18:38:42.753Z,3.15
2022-09-12T18:41:12.293Z,2.35
2022-09-12T18:43:40.539Z,4.07
2022-09-12T18:46:10.125Z,4.15
2022-09-12T18:48:39.794Z,5.53
2022-09-12T18:51:09.088Z,6.38
2022-09-12T18:53:37.756Z,2.58
2022-09-12T18:56:08.604Z,3.40
2022-09-12T18:58:36.568Z,5.10
2022-09-12T19:01:12.068Z,2.80
2022-09-12T19:03:41.250Z,4.32
2022-09-12T19:06:11.845Z,2.92
2022-09-12T19:08:40.052Z,3.45
2022-09-12T19:11:08.789Z,3.50
2022-09-12T19:13:38.753Z,4.80
2022-09-12T19:16:09.216Z,4.00
2022-09-12T19:18:37.948Z,2.75
2022-09-12T19:21:08.188Z,3.55
2022-09-12T19:23:36.503Z,7.20
2022-09-12T19:26:06.737Z,2.67
2022-09-12T19:28:34.801Z,4.32
2022-09-12T19:31:06.325Z,3.95
2022-09-12T19:33:34.131Z,3.15
2022-09-12T19:36:04.359Z,4.32
2022-09-12T19:38:38.820Z,2.80
2022-09-12T19:41:12.324Z,2.63
2022-09-12T19:43:42.633Z,5.55
2022-09-12T19:46:27.829Z,3.20
2022-09-12T19:49:14.090Z,3.27
2022-09-12T19:51:41.890Z,3.75
2022-09-12T20:05:15.134Z,3.75
2022-09-12T20:08:06.411Z,4.15
2022-09-12T20:11:00.264Z,4.75
2022-09-12T20:13:48.999Z,6.43
2022-09-12T20:17:24.091Z,4.18
2022-09-12T20:20:43.626Z,6.45
2022-09-12T20:26:33.592Z,5.28
2022-09-12T20:29:18.921Z,7.40
2022-09-12T20:32:23.592Z,7.85
2022-09-12T20:39:14.215Z,6.93
2022-09-12T20:51:28.443Z,10.88
2022-09-12T21:07:46.933Z,5.75
2022-09-12T21:13:41.802Z,5.00
2022-09-12T21:45:01.015Z,3.60
2022-09-12T21:51:29.761Z,3.55
2022-09-12T22:05:52.017Z,3.85
2022-09-12T22:08:34.625Z,3.30
2022-09-12T22:11:20.783Z,3.53
2022-09-12T22:14:05.633Z,3.25
2022-09-12T22:16:46.284Z,4.10
2022-09-12T22:19:28.420Z,3.30
2022-09-12T22:22:24.643Z,3.50
2022-09-12T22:24:53.645Z,3.72
2022-09-12T22:27:21.922Z,4.55
2022-09-12T22:29:52.113Z,4.57
2022-09-12T22:32:20.739Z,3.90
2022-09-12T22:34:49.153Z,3.75
2022-09-12T22:37:18.884Z,5.75
2022-09-12T22:39:47.053Z,3.75
2022-09-12T22:42:15.690Z,6.05
2022-09-12T22:44:44.173Z,4.93
2022-09-12T22:47:12.231Z,3.78
2022-09-12T22:49:40.851Z,3.38
2022-09-12T22:52:08.874Z,7.15
2022-09-12T22:54:38.373Z,4.25
2022-09-12T22:57:07.314Z,6.15
2022-09-12T22:59:35.218Z,3.25
2022-09-12T23:02:03.624Z,3.55
2022-09-12T23:04:32.128Z,3.83
2022-09-12T23:07:00.450Z,3.60
2022-09-12T23:09:32.060Z,3.72
2022-09-12T23:12:04.877Z,3.72
2022-09-12T23:14:32.782Z,4.47
2022-09-12T23:17:00.827Z,3.88
2022-09-12T23:19:28.545Z,4.30
2022-09-12T23:21:56.433Z,5.10
2022-09-12T23:24:24.289Z,4.72
2022-09-12T23:26:51.909Z,3.95
2022-09-12T23:29:21.460Z,4.15
2022-09-12T23:31:49.241Z,3.60
2022-09-12T23:34:17.822Z,4.00
2022-09-12T23:36:48.957Z,4.53
2022-09-12T23:39:16.974Z,6.57
2022-09-12T23:41:45.087Z,3.42
2022-09-12T23:44:13.306Z,4.03
2022-09-12T23:46:42.437Z,3.78
2022-09-12T23:49:11.296Z,3.67
2022-09-12T23:51:40.012Z,2.97
2022-09-12T23:54:08.798Z,4.25
2022-09-12T23:56:37.116Z,3.42
2022-09-12T23:59:05.195Z,3.78
